sensor_id;sensor_type;location;lat;lon;timestamp;temperature;humidity
12634;DHT22;6382;48.614;8.880;2023-02-27T00:00:47;-3.00;99.90
12634;DHT22;6382;48.614;8.880;2023-02-27T00:03:14;-2.90;99.90
12634;DHT22;6382;48.614;8.880;2023-02-27T00:05:40;-2.90;99.90
12634;DHT22;6382;48.614;8.880;2023-02-27T00:08:07;-3.00;99.90
12634;DHT22;6382;48.614;8.880;2023-02-27T00:10:34;-3.00;99.90
12634;DHT22;6382;48.614;8.880;2023-02-27T00:13:01;-3.00;99.90
12634;DHT22;6382;48.614;8.880;2023-02-27T00:15:27;-3.00;99.90
12634;DHT22;6382;48.614;8.880;2023-02-27T00:17:57;-3.00;99.90
12634;DHT22;6382;48.614;8.880;2023-02-27T00:20:24;-3.00;99.90
12634;DHT22;6382;48.614;8.880;2023-02-27T00:22:51;-1.60;99.90
12634;DHT22;6382;48.614;8.880;2023-02-27T00:25:18;-3.00;99.90
12634;DHT22;6382;48.614;8.880;2023-02-27T00:27:44;-3.10;99.90
12634;DHT22;6382;48.614;8.880;2023-02-27T00:30:12;-5.50;99.90
12634;DHT22;6382;48.614;8.880;2023-02-27T00:32:39;-3.10;99.90
12634;DHT22;6382;48.614;8.880;2023-02-27T00:35:06;-3.00;99.90
12634;DHT22;6382;48.614;8.880;2023-02-27T00:37:34;-3.00;99.90
12634;DHT22;6382;48.614;8.880;2023-02-27T00:40:04;-3.00;99.90
12634;DHT22;6382;48.614;8.880;2023-02-27T00:42:31;-1.70;99.90
12634;DHT22;6382;48.614;8.880;2023-02-27T00:44:59;-3.10;99.90
12634;DHT22;6382;48.614;8.880;2023-02-27T00:47:26;-2.10;99.90
12634;DHT22;6382;48.614;8.880;2023-02-27T00:49:53;-3.10;99.90
12634;DHT22;6382;48.614;8.880;2023-02-27T00:52:19;-3.10;99.90
12634;DHT22;6382;48.614;8.880;2023-02-27T00:54:46;-3.10;99.90
12634;DHT22;6382;48.614;8.880;2023-02-27T00:57:15;-3.20;99.90
12634;DHT22;6382;48.614;8.880;2023-02-27T00:59:41;-3.20;99.90
12634;DHT22;6382;48.614;8.880;2023-02-27T01:02:08;-3.20;99.90
12634;DHT22;6382;48.614;8.880;2023-02-27T01:04:35;-3.20;99.90
12634;DHT22;6382;48.614;8.880;2023-02-27T01:07:02;-3.20;99.90
12634;DHT22;6382;48.614;8.880;2023-02-27T01:09:29;-3.20;99.90
12634;DHT22;6382;48.614;8.880;2023-02-27T01:11:55;-3.20;99.90
12634;DHT22;6382;48.614;8.880;2023-02-27T01:14:23;-3.20;99.90
12634;DHT22;6382;48.614;8.880;2023-02-27T01:16:49;-3.20;99.90
12634;DHT22;6382;48.614;8.880;2023-02-27T01:19:16;-3.10;99.90
12634;DHT22;6382;48.614;8.880;2023-02-27T01:21:43;-3.10;99.90
12634;DHT22;6382;48.614;8.880;2023-02-27T01:24:10;-1.80;99.90
12634;DHT22;6382;48.614;8.880;2023-02-27T01:26:37;-3.20;99.90
12634;DHT22;6382;48.614;8.880;2023-02-27T01:29:04;-3.30;99.90
12634;DHT22;6382;48.614;8.880;2023-02-27T01:31:32;-3.20;99.90
12634;DHT22;6382;48.614;8.880;2023-02-27T01:34:00;-3.20;99.90
12634;DHT22;6382;48.614;8.880;2023-02-27T01:36:26;-3.20;99.90
12634;DHT22;6382;48.614;8.880;2023-02-27T01:38:53;-3.20;99.90
12634;DHT22;6382;48.614;8.880;2023-02-27T01:41:20;-3.20;99.90
12634;DHT22;6382;48.614;8.880;2023-02-27T01:46:26;-3.20;99.90
12634;DHT22;6382;48.614;8.880;2023-02-27T01:48:54;-3.20;99.90
12634;DHT22;6382;48.614;8.880;2023-02-27T01:51:27;-3.20;99.90
12634;DHT22;6382;48.614;8.880;2023-02-27T01:53:55;-3.20;99.90
12634;DHT22;6382;48.614;8.880;2023-02-27T01:56:23;-3.20;99.90
12634;DHT22;6382;48.614;8.880;2023-02-27T01:58:51;-3.20;99.90
12634;DHT22;6382;48.614;8.880;2023-02-27T02:01:19;-3.20;99.90
12634;DHT22;6382;48.614;8.880;2023-02-27T02:03:48;-3.20;99.90
12634;DHT22;6382;48.614;8.880;2023-02-27T02:06:15;-3.20;99.90
12634;DHT22;6382;48.614;8.880;2023-02-27T02:08:43;-3.30;99.90
12634;DHT22;6382;48.614;8.880;2023-02-27T02:11:11;-1.00;99.90
12634;DHT22;6382;48.614;8.880;2023-02-27T02:13:41;-3.30;99.90
12634;DHT22;6382;48.614;8.880;2023-02-27T02:16:45;-3.30;99.90
12634;DHT22;6382;48.614;8.880;2023-02-27T02:19:25;-3.30;99.90
12634;DHT22;6382;48.614;8.880;2023-02-27T02:40:35;-3.30;99.90
12634;DHT22;6382;48.614;8.880;2023-02-27T02:48:13;-3.30;99.90
12634;DHT22;6382;48.614;8.880;2023-02-27T02:50:49;-3.30;99.90
12634;DHT22;6382;48.614;8.880;2023-02-27T02:56:04;-3.40;99.90
12634;DHT22;6382;48.614;8.880;2023-02-27T02:58:36;-3.40;99.90
12634;DHT22;6382;48.614;8.880;2023-02-27T03:01:10;-3.40;99.90
12634;DHT22;6382;48.614;8.880;2023-02-27T03:03:40;-3.40;99.90
12634;DHT22;6382;48.614;8.880;2023-02-27T03:06:10;-3.40;99.90
12634;DHT22;6382;48.614;8.880;2023-02-27T03:08:39;-3.40;99.90
12634;DHT22;6382;48.614;8.880;2023-02-27T03:11:07;-3.40;99.90
12634;DHT22;6382;48.614;8.880;2023-02-27T03:13:39;-3.30;99.90
12634;DHT22;6382;48.614;8.880;2023-02-27T03:16:13;-3.40;99.90
12634;DHT22;6382;48.614;8.880;2023-02-27T03:18:46;-3.40;99.90
12634;DHT22;6382;48.614;8.880;2023-02-27T03:21:20;-3.40;99.90
12634;DHT22;6382;48.614;8.880;2023-02-27T03:23:48;-3.40;99.90
12634;DHT22;6382;48.614;8.880;2023-02-27T03:26:19;-3.30;99.90
12634;DHT22;6382;48.614;8.880;2023-02-27T03:28:55;-3.40;99.90
12634;DHT22;6382;48.614;8.880;2023-02-27T03:31:25;-3.40;99.90
12634;DHT22;6382;48.614;8.880;2023-02-27T03:34:01;-3.40;99.90
12634;DHT22;6382;48.614;8.880;2023-02-27T03:36:37;-3.40;99.90
12634;DHT22;6382;48.614;8.880;2023-02-27T03:39:16;-3.40;99.90
12634;DHT22;6382;48.614;8.880;2023-02-27T03:47:18;-3.50;99.90
12634;DHT22;6382;48.614;8.880;2023-02-27T03:49:45;-3.40;99.90
12634;DHT22;6382;48.614;8.880;2023-02-27T03:52:12;-3.50;99.90
12634;DHT22;6382;48.614;8.880;2023-02-27T03:54:40;-3.50;99.90
12634;DHT22;6382;48.614;8.880;2023-02-27T03:57:09;-3.50;99.90
12634;DHT22;6382;48.614;8.880;2023-02-27T03:59:37;-3.50;99.90
12634;DHT22;6382;48.614;8.880;2023-02-27T04:02:04;-3.50;99.90
12634;DHT22;6382;48.614;8.880;2023-02-27T04:04:31;-3.50;99.90
12634;DHT22;6382;48.614;8.880;2023-02-27T04:15:22;-3.60;99.90
12634;DHT22;6382;48.614;8.880;2023-02-27T04:17:55;-3.50;99.90
12634;DHT22;6382;48.614;8.880;2023-02-27T04:32:56;-3.50;99.90
12634;DHT22;6382;48.614;8.880;2023-02-27T04:35:42;-3.50;99.90
12634;DHT22;6382;48.614;8.880;2023-02-27T04:38:15;-3.50;99.90
12634;DHT22;6382;48.614;8.880;2023-02-27T04:40:45;-3.50;99.90
12634;DHT22;6382;48.614;8.880;2023-02-27T04:43:13;-3.50;99.90
12634;DHT22;6382;48.614;8.880;2023-02-27T04:45:41;-3.50;99.90
12634;DHT22;6382;48.614;8.880;2023-02-27T04:48:31;-3.60;99.90
12634;DHT22;6382;48.614;8.880;2023-02-27T04:51:00;-3.50;99.90
12634;DHT22;6382;48.614;8.880;2023-02-27T04:53:33;-3.60;99.90
12634;DHT22;6382;48.614;8.880;2023-02-27T04:56:06;-3.60;99.90
12634;DHT22;6382;48.614;8.880;2023-02-27T04:58:44;-4.80;99.90
12634;DHT22;6382;48.614;8.880;2023-02-27T05:01:22;-3.60;99.90
12634;DHT22;6382;48.614;8.880;2023-02-27T05:03:51;-3.60;99.90
12634;DHT22;6382;48.614;8.880;2023-02-27T05:06:19;-3.60;99.90
12634;DHT22;6382;48.614;8.880;2023-02-27T05:08:58;-3.60;99.90
12634;DHT22;6382;48.614;8.880;2023-02-27T05:16:37;-3.60;99.90
12634;DHT22;6382;48.614;8.880;2023-02-27T05:19:04;-5.40;99.90
12634;DHT22;6382;48.614;8.880;2023-02-27T05:24:10;-3.60;99.90
12634;DHT22;6382;48.614;8.880;2023-02-27T05:26:39;-3.60;99.90
12634;DHT22;6382;48.614;8.880;2023-02-27T05:32:02;-3.60;99.90
12634;DHT22;6382;48.614;8.880;2023-02-27T05:34:33;-3.60;99.90
12634;DHT22;6382;48.614;8.880;2023-02-27T05:37:01;-3.60;99.90
12634;DHT22;6382;48.614;8.880;2023-02-27T05:39:30;-3.60;99.90
12634;DHT22;6382;48.614;8.880;2023-02-27T05:42:12;-3.60;99.90
12634;DHT22;6382;48.614;8.880;2023-02-27T05:44:41;-3.60;99.90
12634;DHT22;6382;48.614;8.880;2023-02-27T05:47:11;-3.60;99.90
12634;DHT22;6382;48.614;8.880;2023-02-27T05:49:40;-3.60;99.90
12634;DHT22;6382;48.614;8.880;2023-02-27T05:52:08;-3.60;99.90
12634;DHT22;6382;48.614;8.880;2023-02-27T05:57:08;-3.60;99.90
12634;DHT22;6382;48.614;8.880;2023-02-27T05:59:44;-3.80;99.90
12634;DHT22;6382;48.614;8.880;2023-02-27T06:02:12;-3.60;99.90
12634;DHT22;6382;48.614;8.880;2023-02-27T06:04:39;-3.60;99.90
12634;DHT22;6382;48.614;8.880;2023-02-27T06:07:06;-3.90;99.90
12634;DHT22;6382;48.614;8.880;2023-02-27T06:09:34;-3.70;99.90
12634;DHT22;6382;48.614;8.880;2023-02-27T06:12:01;-3.70;99.90
12634;DHT22;6382;48.614;8.880;2023-02-27T06:14:27;-3.70;99.90
12634;DHT22;6382;48.614;8.880;2023-02-27T06:16:54;-3.70;99.90
12634;DHT22;6382;48.614;8.880;2023-02-27T06:19:21;-1.90;99.90
12634;DHT22;6382;48.614;8.880;2023-02-27T06:21:47;-3.80;99.90
12634;DHT22;6382;48.614;8.880;2023-02-27T06:24:15;-3.80;99.90
12634;DHT22;6382;48.614;8.880;2023-02-27T06:26:41;-3.90;99.90
12634;DHT22;6382;48.614;8.880;2023-02-27T06:29:08;-3.90;99.90
12634;DHT22;6382;48.614;8.880;2023-02-27T06:31:35;-4.00;99.90
12634;DHT22;6382;48.614;8.880;2023-02-27T06:34:01;-4.00;99.90
12634;DHT22;6382;48.614;8.880;2023-02-27T06:36:28;-4.00;99.90
12634;DHT22;6382;48.614;8.880;2023-02-27T06:38:55;-4.00;99.90
12634;DHT22;6382;48.614;8.880;2023-02-27T06:41:23;-4.00;99.90
12634;DHT22;6382;48.614;8.880;2023-02-27T06:43:50;-4.00;99.90
12634;DHT22;6382;48.614;8.880;2023-02-27T06:46:16;-4.00;99.90
12634;DHT22;6382;48.614;8.880;2023-02-27T06:48:43;-4.00;99.90
12634;DHT22;6382;48.614;8.880;2023-02-27T06:51:10;-4.00;99.90
12634;DHT22;6382;48.614;8.880;2023-02-27T06:53:37;-2.10;99.90
12634;DHT22;6382;48.614;8.880;2023-02-27T06:56:04;-3.90;99.90
12634;DHT22;6382;48.614;8.880;2023-02-27T06:58:31;-3.90;99.90
12634;DHT22;6382;48.614;8.880;2023-02-27T07:00:58;-3.90;99.90
12634;DHT22;6382;48.614;8.880;2023-02-27T07:03:25;-3.90;99.90
12634;DHT22;6382;48.614;8.880;2023-02-27T07:05:52;-3.90;99.90
12634;DHT22;6382;48.614;8.880;2023-02-27T07:08:18;-3.80;99.90
12634;DHT22;6382;48.614;8.880;2023-02-27T07:10:45;-3.70;99.90
12634;DHT22;6382;48.614;8.880;2023-02-27T07:13:12;-3.90;99.90
12634;DHT22;6382;48.614;8.880;2023-02-27T07:15:43;-3.70;99.90
12634;DHT22;6382;48.614;8.880;2023-02-27T07:18:10;-3.50;99.90
12634;DHT22;6382;48.614;8.880;2023-02-27T07:20:36;-3.40;99.90
12634;DHT22;6382;48.614;8.880;2023-02-27T07:23:03;-3.30;99.90
12634;DHT22;6382;48.614;8.880;2023-02-27T07:25:30;-3.20;99.90
12634;DHT22;6382;48.614;8.880;2023-02-27T07:27:56;-3.20;99.90
12634;DHT22;6382;48.614;8.880;2023-02-27T07:30:23;-3.10;99.90
12634;DHT22;6382;48.614;8.880;2023-02-27T07:32:49;-3.10;99.90
12634;DHT22;6382;48.614;8.880;2023-02-27T07:35:16;-3.00;99.90
12634;DHT22;6382;48.614;8.880;2023-02-27T07:37:45;-3.00;99.90
12634;DHT22;6382;48.614;8.880;2023-02-27T07:40:12;-2.90;99.90
12634;DHT22;6382;48.614;8.880;2023-02-27T07:42:39;-2.80;99.90
12634;DHT22;6382;48.614;8.880;2023-02-27T07:45:06;-2.70;99.90
12634;DHT22;6382;48.614;8.880;2023-02-27T07:47:33;-2.70;99.90
12634;DHT22;6382;48.614;8.880;2023-02-27T07:50:00;-2.60;99.90
12634;DHT22;6382;48.614;8.880;2023-02-27T07:52:26;-2.50;99.90
12634;DHT22;6382;48.614;8.880;2023-02-27T07:54:53;-2.50;99.90
12634;DHT22;6382;48.614;8.880;2023-02-27T07:57:20;-2.40;99.90
12634;DHT22;6382;48.614;8.880;2023-02-27T07:59:46;0.10;99.90
12634;DHT22;6382;48.614;8.880;2023-02-27T08:02:13;-2.30;99.90
12634;DHT22;6382;48.614;8.880;2023-02-27T08:04:40;-2.30;99.90
12634;DHT22;6382;48.614;8.880;2023-02-27T08:07:07;-2.20;99.90
12634;DHT22;6382;48.614;8.880;2023-02-27T08:09:34;-3.90;99.90
12634;DHT22;6382;48.614;8.880;2023-02-27T08:12:01;-2.10;99.90
12634;DHT22;6382;48.614;8.880;2023-02-27T08:14:28;-2.00;99.90
12634;DHT22;6382;48.614;8.880;2023-02-27T08:16:55;-1.90;99.90
12634;DHT22;6382;48.614;8.880;2023-02-27T08:19:21;-1.80;99.90
12634;DHT22;6382;48.614;8.880;2023-02-27T08:21:48;-1.80;99.90
12634;DHT22;6382;48.614;8.880;2023-02-27T08:24:15;-1.70;99.90
12634;DHT22;6382;48.614;8.880;2023-02-27T08:26:41;-1.70;99.90
12634;DHT22;6382;48.614;8.880;2023-02-27T08:29:08;-1.60;99.90
12634;DHT22;6382;48.614;8.880;2023-02-27T08:31:35;-1.50;99.90
12634;DHT22;6382;48.614;8.880;2023-02-27T08:34:01;-1.50;99.90
12634;DHT22;6382;48.614;8.880;2023-02-27T08:36:36;-1.50;99.90
12634;DHT22;6382;48.614;8.880;2023-02-27T08:39:03;-1.40;99.90
12634;DHT22;6382;48.614;8.880;2023-02-27T08:41:30;0.60;99.90
12634;DHT22;6382;48.614;8.880;2023-02-27T08:43:56;-1.30;99.90
12634;DHT22;6382;48.614;8.880;2023-02-27T08:46:23;-1.30;99.90
12634;DHT22;6382;48.614;8.880;2023-02-27T08:48:50;-1.30;99.90
12634;DHT22;6382;48.614;8.880;2023-02-27T08:51:17;0.70;99.90
12634;DHT22;6382;48.614;8.880;2023-02-27T08:53:44;-1.20;99.90
12634;DHT22;6382;48.614;8.880;2023-02-27T08:56:10;0.40;99.90
12634;DHT22;6382;48.614;8.880;2023-02-27T08:58:37;-1.20;99.90
12634;DHT22;6382;48.614;8.880;2023-02-27T09:01:04;-1.10;99.90
12634;DHT22;6382;48.614;8.880;2023-02-27T09:03:31;-1.00;99.90
12634;DHT22;6382;48.614;8.880;2023-02-27T09:05:58;-0.80;99.90
12634;DHT22;6382;48.614;8.880;2023-02-27T09:08:24;-0.80;99.90
12634;DHT22;6382;48.614;8.880;2023-02-27T09:10:54;-0.80;99.90
12634;DHT22;6382;48.614;8.880;2023-02-27T09:13:21;-0.70;99.90
12634;DHT22;6382;48.614;8.880;2023-02-27T09:15:47;-0.60;99.90
12634;DHT22;6382;48.614;8.880;2023-02-27T09:18:14;-0.60;99.90
12634;DHT22;6382;48.614;8.880;2023-02-27T09:20:41;-0.60;99.90
12634;DHT22;6382;48.614;8.880;2023-02-27T09:23:07;-0.50;99.90
12634;DHT22;6382;48.614;8.880;2023-02-27T09:25:34;-0.40;99.90
12634;DHT22;6382;48.614;8.880;2023-02-27T09:28:00;-0.40;99.90
12634;DHT22;6382;48.614;8.880;2023-02-27T09:30:27;-0.20;99.90
12634;DHT22;6382;48.614;8.880;2023-02-27T09:32:54;-0.20;99.90
12634;DHT22;6382;48.614;8.880;2023-02-27T09:35:20;-0.10;99.90
12634;DHT22;6382;48.614;8.880;2023-02-27T09:37:47;0.00;99.90
12634;DHT22;6382;48.614;8.880;2023-02-27T09:40:19;0.00;99.90
12634;DHT22;6382;48.614;8.880;2023-02-27T09:42:48;0.10;99.90
12634;DHT22;6382;48.614;8.880;2023-02-27T09:45:20;0.20;99.90
12634;DHT22;6382;48.614;8.880;2023-02-27T09:47:50;0.20;99.90
12634;DHT22;6382;48.614;8.880;2023-02-27T09:53:05;0.40;99.90
12634;DHT22;6382;48.614;8.880;2023-02-27T09:55:33;0.50;99.90
12634;DHT22;6382;48.614;8.880;2023-02-27T09:58:03;0.50;99.90
12634;DHT22;6382;48.614;8.880;2023-02-27T10:00:52;0.50;99.90
12634;DHT22;6382;48.614;8.880;2023-02-27T10:06:12;0.60;99.90
12634;DHT22;6382;48.614;8.880;2023-02-27T10:11:13;0.70;99.90
12634;DHT22;6382;48.614;8.880;2023-02-27T10:13:46;3.60;99.90
12634;DHT22;6382;48.614;8.880;2023-02-27T10:16:16;0.90;99.90
12634;DHT22;6382;48.614;8.880;2023-02-27T10:18:50;1.00;99.90
12634;DHT22;6382;48.614;8.880;2023-02-27T10:21:21;1.00;99.90
12634;DHT22;6382;48.614;8.880;2023-02-27T10:24:05;1.00;99.90
12634;DHT22;6382;48.614;8.880;2023-02-27T10:26:37;1.10;99.90
12634;DHT22;6382;48.614;8.880;2023-02-27T10:29:16;1.10;99.90
12634;DHT22;6382;48.614;8.880;2023-02-27T10:31:44;1.10;99.90
12634;DHT22;6382;48.614;8.880;2023-02-27T10:34:12;1.20;99.90
12634;DHT22;6382;48.614;8.880;2023-02-27T10:36:42;1.30;99.90
12634;DHT22;6382;48.614;8.880;2023-02-27T10:39:10;1.40;99.90
12634;DHT22;6382;48.614;8.880;2023-02-27T10:41:39;1.40;99.90
12634;DHT22;6382;48.614;8.880;2023-02-27T10:44:06;1.50;99.90
12634;DHT22;6382;48.614;8.880;2023-02-27T10:46:34;1.50;99.90
12634;DHT22;6382;48.614;8.880;2023-02-27T10:49:01;1.50;99.90
12634;DHT22;6382;48.614;8.880;2023-02-27T10:51:32;1.50;99.90
12634;DHT22;6382;48.614;8.880;2023-02-27T10:54:18;1.50;99.90
12634;DHT22;6382;48.614;8.880;2023-02-27T10:56:49;1.50;99.90
12634;DHT22;6382;48.614;8.880;2023-02-27T10:59:37;1.50;99.90
12634;DHT22;6382;48.614;8.880;2023-02-27T11:04:46;1.40;99.90
12634;DHT22;6382;48.614;8.880;2023-02-27T11:07:14;1.40;99.90
12634;DHT22;6382;48.614;8.880;2023-02-27T11:09:43;1.60;99.90
12634;DHT22;6382;48.614;8.880;2023-02-27T11:12:28;1.70;99.90
12634;DHT22;6382;48.614;8.880;2023-02-27T11:14:56;1.90;99.90
12634;DHT22;6382;48.614;8.880;2023-02-27T11:17:32;2.20;99.90
12634;DHT22;6382;48.614;8.880;2023-02-27T11:20:00;2.10;99.90
12634;DHT22;6382;48.614;8.880;2023-02-27T11:22:28;2.00;99.90
12634;DHT22;6382;48.614;8.880;2023-02-27T11:27:40;1.60;99.90
12634;DHT22;6382;48.614;8.880;2023-02-27T11:30:24;1.60;99.90
12634;DHT22;6382;48.614;8.880;2023-02-27T11:32:54;1.40;99.90
12634;DHT22;6382;48.614;8.880;2023-02-27T11:35:35;1.30;99.90
12634;DHT22;6382;48.614;8.880;2023-02-27T11:38:03;1.40;99.90
12634;DHT22;6382;48.614;8.880;2023-02-27T11:40:31;1.40;99.90
12634;DHT22;6382;48.614;8.880;2023-02-27T11:43:06;1.40;99.90
12634;DHT22;6382;48.614;8.880;2023-02-27T11:45:40;1.40;99.90
12634;DHT22;6382;48.614;8.880;2023-02-27T11:48:28;1.30;99.90
12634;DHT22;6382;48.614;8.880;2023-02-27T11:56:09;1.30;99.90
12634;DHT22;6382;48.614;8.880;2023-02-27T11:58:43;1.30;99.90
12634;DHT22;6382;48.614;8.880;2023-02-27T12:01:14;1.30;99.90
12634;DHT22;6382;48.614;8.880;2023-02-27T12:06:16;1.30;99.90
12634;DHT22;6382;48.614;8.880;2023-02-27T12:08:46;1.20;99.90
12634;DHT22;6382;48.614;8.880;2023-02-27T12:11:15;1.20;99.90
12634;DHT22;6382;48.614;8.880;2023-02-27T12:13:48;1.20;99.90
12634;DHT22;6382;48.614;8.880;2023-02-27T12:18:47;1.50;99.90
12634;DHT22;6382;48.614;8.880;2023-02-27T12:21:33;1.60;99.90
12634;DHT22;6382;48.614;8.880;2023-02-27T12:24:13;1.90;99.90
12634;DHT22;6382;48.614;8.880;2023-02-27T12:26:48;2.10;99.90
12634;DHT22;6382;48.614;8.880;2023-02-27T12:29:30;2.10;99.90
12634;DHT22;6382;48.614;8.880;2023-02-27T12:34:26;2.40;99.90
12634;DHT22;6382;48.614;8.880;2023-02-27T12:37:02;2.60;99.90
12634;DHT22;6382;48.614;8.880;2023-02-27T12:39:29;2.50;99.90
12634;DHT22;6382;48.614;8.880;2023-02-27T12:47:44;2.00;99.90
12634;DHT22;6382;48.614;8.880;2023-02-27T12:50:21;2.20;99.90
12634;DHT22;6382;48.614;8.880;2023-02-27T12:55:30;2.30;99.90
12634;DHT22;6382;48.614;8.880;2023-02-27T13:05:50;2.30;99.90
12634;DHT22;6382;48.614;8.880;2023-02-27T13:08:33;2.40;99.90
12634;DHT22;6382;48.614;8.880;2023-02-27T13:11:14;2.40;99.90
12634;DHT22;6382;48.614;8.880;2023-02-27T13:13:46;2.40;99.90
12634;DHT22;6382;48.614;8.880;2023-02-27T13:16:15;2.50;99.90
12634;DHT22;6382;48.614;8.880;2023-02-27T13:24:21;2.40;99.90
12634;DHT22;6382;48.614;8.880;2023-02-27T13:26:47;2.40;99.90
12634;DHT22;6382;48.614;8.880;2023-02-27T13:29:16;2.50;99.90
12634;DHT22;6382;48.614;8.880;2023-02-27T13:31:49;2.30;99.90
12634;DHT22;6382;48.614;8.880;2023-02-27T13:34:25;2.40;99.90
12634;DHT22;6382;48.614;8.880;2023-02-27T13:37:03;2.30;99.90
12634;DHT22;6382;48.614;8.880;2023-02-27T13:49:57;2.20;99.90
12634;DHT22;6382;48.614;8.880;2023-02-27T13:52:27;2.00;99.90
12634;DHT22;6382;48.614;8.880;2023-02-27T13:54:54;1.90;99.90
12634;DHT22;6382;48.614;8.880;2023-02-27T13:57:32;1.90;99.90
12634;DHT22;6382;48.614;8.880;2023-02-27T14:04:58;2.00;99.90
12634;DHT22;6382;48.614;8.880;2023-02-27T14:07:30;2.00;99.90
12634;DHT22;6382;48.614;8.880;2023-02-27T14:10:02;2.00;99.90
12634;DHT22;6382;48.614;8.880;2023-02-27T14:12:31;2.00;99.90
12634;DHT22;6382;48.614;8.880;2023-02-27T14:17:44;1.80;99.90
12634;DHT22;6382;48.614;8.880;2023-02-27T14:25:43;1.90;99.90
12634;DHT22;6382;48.614;8.880;2023-02-27T14:28:15;1.80;99.90
12634;DHT22;6382;48.614;8.880;2023-02-27T14:30:45;1.80;99.90
12634;DHT22;6382;48.614;8.880;2023-02-27T14:35:55;1.80;99.90
12634;DHT22;6382;48.614;8.880;2023-02-27T14:38:23;1.70;99.90
12634;DHT22;6382;48.614;8.880;2023-02-27T14:41:00;1.70;99.90
12634;DHT22;6382;48.614;8.880;2023-02-27T14:43:34;1.70;99.90
12634;DHT22;6382;48.614;8.880;2023-02-27T14:46:06;1.70;99.90
12634;DHT22;6382;48.614;8.880;2023-02-27T14:48:33;1.70;99.90
12634;DHT22;6382;48.614;8.880;2023-02-27T14:51:03;1.70;99.90
12634;DHT22;6382;48.614;8.880;2023-02-27T14:53:30;1.70;99.90
12634;DHT22;6382;48.614;8.880;2023-02-27T14:55:57;1.70;99.90
12634;DHT22;6382;48.614;8.880;2023-02-27T14:58:24;1.70;99.90
12634;DHT22;6382;48.614;8.880;2023-02-27T15:03:21;1.70;99.90
12634;DHT22;6382;48.614;8.880;2023-02-27T15:05:50;1.70;99.90
12634;DHT22;6382;48.614;8.880;2023-02-27T15:08:19;1.70;99.90
12634;DHT22;6382;48.614;8.880;2023-02-27T15:10:47;1.50;99.90
12634;DHT22;6382;48.614;8.880;2023-02-27T15:13:18;1.50;99.90
12634;DHT22;6382;48.614;8.880;2023-02-27T15:15:46;1.50;99.90
12634;DHT22;6382;48.614;8.880;2023-02-27T15:18:14;1.40;99.90
12634;DHT22;6382;48.614;8.880;2023-02-27T15:20:40;1.40;99.90
12634;DHT22;6382;48.614;8.880;2023-02-27T15:23:27;1.40;99.90
12634;DHT22;6382;48.614;8.880;2023-02-27T15:25:55;1.30;99.90
12634;DHT22;6382;48.614;8.880;2023-02-27T15:28:23;1.30;99.90
12634;DHT22;6382;48.614;8.880;2023-02-27T15:30:50;1.30;99.90
12634;DHT22;6382;48.614;8.880;2023-02-27T15:33:18;1.20;99.90
12634;DHT22;6382;48.614;8.880;2023-02-27T15:35:47;1.10;99.90
12634;DHT22;6382;48.614;8.880;2023-02-27T15:40:53;1.10;99.90
12634;DHT22;6382;48.614;8.880;2023-02-27T15:43:21;1.00;99.90
12634;DHT22;6382;48.614;8.880;2023-02-27T15:45:48;1.00;99.90
12634;DHT22;6382;48.614;8.880;2023-02-27T15:48:15;1.00;99.90
12634;DHT22;6382;48.614;8.880;2023-02-27T15:50:47;1.00;99.90
12634;DHT22;6382;48.614;8.880;2023-02-27T15:56:06;1.00;99.90
12634;DHT22;6382;48.614;8.880;2023-02-27T15:58:32;1.00;99.90
12634;DHT22;6382;48.614;8.880;2023-02-27T16:01:22;0.90;99.90
12634;DHT22;6382;48.614;8.880;2023-02-27T16:03:48;0.90;99.90
12634;DHT22;6382;48.614;8.880;2023-02-27T16:06:19;0.90;99.90
12634;DHT22;6382;48.614;8.880;2023-02-27T16:08:50;0.90;99.90
12634;DHT22;6382;48.614;8.880;2023-02-27T16:11:17;0.90;99.90
12634;DHT22;6382;48.614;8.880;2023-02-27T16:13:44;0.90;99.90
12634;DHT22;6382;48.614;8.880;2023-02-27T16:18:51;0.70;99.90
12634;DHT22;6382;48.614;8.880;2023-02-27T16:21:19;0.70;99.90
12634;DHT22;6382;48.614;8.880;2023-02-27T16:23:46;0.70;99.90
12634;DHT22;6382;48.614;8.880;2023-02-27T16:26:27;0.60;99.90
12634;DHT22;6382;48.614;8.880;2023-02-27T16:31:29;0.60;99.90
12634;DHT22;6382;48.614;8.880;2023-02-27T16:33:57;0.60;99.90
12634;DHT22;6382;48.614;8.880;2023-02-27T16:36:25;0.60;99.90
12634;DHT22;6382;48.614;8.880;2023-02-27T16:38:53;0.50;99.90
12634;DHT22;6382;48.614;8.880;2023-02-27T16:41:20;0.50;99.90
12634;DHT22;6382;48.614;8.880;2023-02-27T16:43:47;0.40;99.90
12634;DHT22;6382;48.614;8.880;2023-02-27T16:46:25;1.20;99.90
12634;DHT22;6382;48.614;8.880;2023-02-27T16:49:08;3.40;99.90
12634;DHT22;6382;48.614;8.880;2023-02-27T16:51:48;0.30;99.90
12634;DHT22;6382;48.614;8.880;2023-02-27T16:54:24;0.30;99.90
12634;DHT22;6382;48.614;8.880;2023-02-27T16:56:54;0.30;99.90
12634;DHT22;6382;48.614;8.880;2023-02-27T16:59:29;3.10;99.90
12634;DHT22;6382;48.614;8.880;2023-02-27T17:02:14;2.80;99.90
12634;DHT22;6382;48.614;8.880;2023-02-27T17:04:42;0.20;99.90
12634;DHT22;6382;48.614;8.880;2023-02-27T17:07:11;3.30;99.90
12634;DHT22;6382;48.614;8.880;2023-02-27T17:09:42;0.30;99.90
12634;DHT22;6382;48.614;8.880;2023-02-27T21:02:33;-1.30;99.90
12634;DHT22;6382;48.614;8.880;2023-02-27T21:05:00;-1.40;99.90
12634;DHT22;6382;48.614;8.880;2023-02-27T21:07:27;-1.80;99.90
12634;DHT22;6382;48.614;8.880;2023-02-27T21:09:56;2.10;99.90
12634;DHT22;6382;48.614;8.880;2023-02-27T21:12:23;-1.40;99.90
12634;DHT22;6382;48.614;8.880;2023-02-27T21:14:50;-1.50;99.90
12634;DHT22;6382;48.614;8.880;2023-02-27T21:17:17;-1.40;99.90
12634;DHT22;6382;48.614;8.880;2023-02-27T21:19:43;1.80;99.90
12634;DHT22;6382;48.614;8.880;2023-02-27T21:22:10;-1.40;99.90
12634;DHT22;6382;48.614;8.880;2023-02-27T21:24:37;-1.40;99.90
12634;DHT22;6382;48.614;8.880;2023-02-27T21:27:05;1.90;99.90
12634;DHT22;6382;48.614;8.880;2023-02-27T21:29:32;1.20;99.90
12634;DHT22;6382;48.614;8.880;2023-02-27T21:32:01;0.10;99.90
12634;DHT22;6382;48.614;8.880;2023-02-27T21:34:28;-1.50;99.90
12634;DHT22;6382;48.614;8.880;2023-02-27T21:36:55;1.80;99.90
12634;DHT22;6382;48.614;8.880;2023-02-27T21:39:24;2.00;99.90
12634;DHT22;6382;48.614;8.880;2023-02-27T21:41:51;1.20;99.90
12634;DHT22;6382;48.614;8.880;2023-02-27T21:44:19;-1.70;99.90
12634;DHT22;6382;48.614;8.880;2023-02-27T21:46:46;0.30;99.90
12634;DHT22;6382;48.614;8.880;2023-02-27T21:52:06;-1.80;99.90
12634;DHT22;6382;48.614;8.880;2023-02-27T21:54:33;-1.90;99.90
12634;DHT22;6382;48.614;8.880;2023-02-27T21:57:00;0.40;99.90
12634;DHT22;6382;48.614;8.880;2023-02-27T21:59:28;-1.80;99.90
12634;DHT22;6382;48.614;8.880;2023-02-27T22:01:56;-1.70;99.90
12634;DHT22;6382;48.614;8.880;2023-02-27T22:04:22;-1.80;99.90
12634;DHT22;6382;48.614;8.880;2023-02-27T22:06:50;-1.90;99.90
12634;DHT22;6382;48.614;8.880;2023-02-27T22:09:17;-1.90;99.90
12634;DHT22;6382;48.614;8.880;2023-02-27T22:11:44;-2.00;99.90
12634;DHT22;6382;48.614;8.880;2023-02-27T22:14:10;-2.00;99.90
12634;DHT22;6382;48.614;8.880;2023-02-27T22:16:37;-2.00;99.90
12634;DHT22;6382;48.614;8.880;2023-02-27T22:19:05;-2.00;99.90
12634;DHT22;6382;48.614;8.880;2023-02-27T22:21:33;-2.00;99.90
12634;DHT22;6382;48.614;8.880;2023-02-27T22:24:00;-2.00;99.90
12634;DHT22;6382;48.614;8.880;2023-02-27T22:26:27;-2.00;99.90
12634;DHT22;6382;48.614;8.880;2023-02-27T22:28:54;-2.10;99.90
12634;DHT22;6382;48.614;8.880;2023-02-27T22:31:22;-2.10;99.90
12634;DHT22;6382;48.614;8.880;2023-02-27T22:33:50;-2.10;99.90
12634;DHT22;6382;48.614;8.880;2023-02-27T22:36:18;-2.10;99.90